Time,TemperatureF,DewpointF,PressureIn,WindDirection,WindDirectionDegrees,WindSpeedMPH,WindSpeedGustMPH,Humidity,HourlyPrecipIn,Conditions,Clouds,dailyrainin,SoftwareType,DateUTC
2013-02-19 00:02:00,21.0,10.0,-100.00,WNW,285,13.0,30.0,62,0.00,,,-99.99,,2013-02-19 06:02:00,
2013-02-19 00:11:00,21.0,10.0,-100.00,WNW,285,17.0,29.0,62,0.00,,,-99.99,,2013-02-19 06:11:00,
2013-02-19 00:21:00,20.0,10.0,-100.00,WNW,290,21.0,29.0,62,0.00,,,-99.99,,2013-02-19 06:21:00,
2013-02-19 00:32:00,20.0,9.0,-100.00,WNW,290,24.0,33.0,62,0.00,,,-99.99,,2013-02-19 06:32:00,
2013-02-19 00:42:00,20.0,9.0,-100.00,WNW,290,17.0,29.0,63,0.00,,,-99.99,,2013-02-19 06:42:00,
2013-02-19 00:52:00,20.0,9.0,-100.00,West,275,16.0,21.0,64,0.00,,,-99.99,,2013-02-19 06:52:00,
2013-02-19 01:01:00,20.0,9.0,-100.00,West,275,16.0,21.0,64,0.00,,,-99.99,,2013-02-19 07:01:00,
2013-02-19 01:11:00,20.0,10.0,-100.00,WNW,290,20.0,26.0,64,0.00,,,-99.99,,2013-02-19 07:11:00,
2013-02-19 01:21:00,20.0,10.0,-100.00,WNW,295,14.0,26.0,64,0.00,,,-99.99,,2013-02-19 07:21:00,
2013-02-19 01:32:00,20.0,10.0,-100.00,WNW,290,21.0,27.0,64,0.00,,,-99.99,,2013-02-19 07:32:00,
2013-02-19 01:42:00,20.0,10.0,-100.00,WNW,285,22.0,28.0,64,0.00,,,-99.99,,2013-02-19 07:42:00,
2013-02-19 01:52:00,20.0,10.0,-100.00,WNW,285,21.0,28.0,64,0.00,,,-99.99,,2013-02-19 07:52:00,
2013-02-19 02:02:00,20.0,10.0,-100.00,WNW,285,21.0,28.0,64,0.00,,,-99.99,,2013-02-19 08:02:00,
2013-02-19 02:11:00,19.0,9.0,-100.00,WNW,300,26.0,35.0,63,0.00,,,-99.99,,2013-02-19 08:11:00,
2013-02-19 02:21:00,19.0,9.0,-100.00,WNW,295,18.0,35.0,63,0.00,,,-99.99,,2013-02-19 08:21:00,
2013-02-19 02:31:00,19.0,9.0,-100.00,NW,310,19.0,29.0,64,0.00,,,-99.99,,2013-02-19 08:31:00,
2013-02-19 02:42:00,19.0,9.0,-100.00,WNW,295,15.0,22.0,65,0.00,,,-99.99,,2013-02-19 08:42:00,
2013-02-19 02:52:00,19.0,9.0,-100.00,West,280,19.0,28.0,65,0.00,,,-99.99,,2013-02-19 08:52:00,
2013-02-19 03:01:00,19.0,9.0,-100.00,West,280,19.0,28.0,65,0.00,,,-99.99,,2013-02-19 09:01:00,
2013-02-19 03:11:00,19.0,9.0,-100.00,WNW,290,19.0,32.0,64,0.00,,,-99.99,,2013-02-19 09:11:00,
2013-02-19 03:21:00,19.0,9.0,-100.00,WNW,295,16.0,29.0,65,0.00,,,-99.99,,2013-02-19 09:21:00,
2013-02-19 03:32:00,17.0,7.0,-100.00,WNW,285,25.0,34.0,63,0.00,,,-99.99,,2013-02-19 09:32:00,
2013-02-19 03:42:00,17.0,6.0,-100.00,WNW,295,25.0,36.0,63,0.00,,,-99.99,,2013-02-19 09:42:00,
2013-02-19 03:52:00,17.0,7.0,-100.00,WNW,300,19.0,29.0,65,0.00,,,-99.99,,2013-02-19 09:52:00,
2013-02-19 04:01:00,17.0,7.0,-100.00,WNW,300,19.0,29.0,65,0.00,,,-99.99,,2013-02-19 10:01:00,
2013-02-19 04:11:00,17.0,8.0,-100.00,WNW,290,11.0,17.0,67,0.00,,,-99.99,,2013-02-19 10:11:00,
2013-02-19 04:21:00,17.0,8.0,-100.00,West,280,13.0,17.0,67,0.00,,,-99.99,,2013-02-19 10:21:00,
2013-02-19 04:31:00,17.0,8.0,-100.00,West,275,20.0,27.0,67,0.00,,,-99.99,,2013-02-19 10:31:00,
2013-02-19 04:41:00,16.0,8.0,-100.00,WNW,300,20.0,32.0,68,0.00,,,-99.99,,2013-02-19 10:41:00,
2013-02-19 04:51:00,16.0,7.0,-100.00,WNW,290,21.0,30.0,66,0.00,,,-99.99,,2013-02-19 10:51:00,
2013-02-19 05:01:00,16.0,7.0,-100.00,WNW,290,21.0,30.0,66,0.00,,,-99.99,,2013-02-19 11:01:00,
2013-02-19 05:11:00,16.0,7.0,-100.00,WNW,290,19.0,31.0,66,0.00,,,-99.99,,2013-02-19 11:11:00,
2013-02-19 05:21:00,16.0,7.0,-100.00,WNW,300,22.0,29.0,66,0.00,,,-99.99,,2013-02-19 11:21:00,
2013-02-19 05:32:00,16.0,7.0,-100.00,WNW,295,16.0,26.0,67,0.00,,,-99.99,,2013-02-19 11:32:00,
2013-02-19 05:42:00,15.0,5.0,-100.00,WNW,290,24.0,36.0,65,0.00,,,-99.99,,2013-02-19 11:42:00,
2013-02-19 05:52:00,14.0,5.0,-100.00,WNW,300,19.0,30.0,68,0.00,,,-99.99,,2013-02-19 11:52:00,
2013-02-19 06:01:00,14.0,5.0,-100.00,WNW,300,19.0,30.0,68,0.00,,,-99.99,,2013-02-19 12:01:00,
2013-02-19 06:12:00,14.0,6.0,-100.00,WNW,295,30.0,38.0,68,0.00,,,-99.99,,2013-02-19 12:12:00,
2013-02-19 06:22:00,14.0,5.0,-100.00,WNW,295,21.0,38.0,67,0.00,,,-99.99,,2013-02-19 12:22:00,
2013-02-19 06:32:00,14.0,5.0,-100.00,WNW,295,20.0,30.0,67,0.00,,,-99.99,,2013-02-19 12:32:00,
2013-02-19 06:42:00,14.0,5.0,-100.00,WNW,295,22.0,30.0,67,0.00,,,-99.99,,2013-02-19 12:42:00,
2013-02-19 06:52:00,14.0,5.0,-100.00,WNW,295,17.0,27.0,68,0.00,,,-99.99,,2013-02-19 12:52:00,
2013-02-19 07:02:00,14.0,5.0,-100.00,WNW,295,17.0,27.0,68,0.00,,,-99.99,,2013-02-19 13:02:00,
2013-02-19 07:11:00,14.0,6.0,-100.00,WNW,295,19.0,26.0,68,0.00,,,-99.99,,2013-02-19 13:11:00,
2013-02-19 07:22:00,14.0,6.0,-100.00,WNW,285,20.0,26.0,68,0.00,,,-99.99,,2013-02-19 13:22:00,
2013-02-19 07:32:00,15.0,6.0,-100.00,WNW,290,17.0,29.0,68,0.00,,,-99.99,,2013-02-19 13:32:00,
2013-02-19 07:41:00,15.0,6.0,-100.00,WNW,290,19.0,31.0,68,0.00,,,-99.99,,2013-02-19 13:41:00,
2013-02-19 07:52:00,15.0,6.0,-100.00,WNW,285,24.0,35.0,67,0.00,,,-99.99,,2013-02-19 13:52:00,
2013-02-19 08:01:00,15.0,6.0,-100.00,WNW,285,24.0,35.0,67,0.00,,,-99.99,,2013-02-19 14:01:00,
2013-02-19 08:11:00,15.0,6.0,-100.00,WNW,295,19.0,33.0,66,0.00,,,-99.99,,2013-02-19 14:11:00,
2013-02-19 08:21:00,15.0,6.0,-100.00,WNW,295,19.0,27.0,66,0.00,,,-99.99,,2013-02-19 14:21:00,
2013-02-19 08:32:00,16.0,6.0,-100.00,WNW,290,21.0,29.0,65,0.00,,,-99.99,,2013-02-19 14:32:00,
2013-02-19 08:42:00,16.0,6.0,-100.00,West,280,21.0,29.0,64,0.00,,,-99.99,,2013-02-19 14:42:00,
2013-02-19 08:52:00,16.0,6.0,-100.00,WNW,285,21.0,33.0,64,0.00,,,-99.99,,2013-02-19 14:52:00,
2013-02-19 09:01:00,16.0,6.0,-100.00,WNW,285,21.0,33.0,64,0.00,,,-99.99,,2013-02-19 15:01:00,
2013-02-19 09:11:00,17.0,7.0,-100.00,WNW,285,24.0,33.0,63,0.00,,,-99.99,,2013-02-19 15:11:00,
2013-02-19 09:21:00,18.0,7.0,-100.00,WNW,290,24.0,30.0,62,0.00,,,-99.99,,2013-02-19 15:21:00,
2013-02-19 09:32:00,18.0,7.0,-100.00,West,280,21.0,32.0,60,0.00,,,-99.99,,2013-02-19 15:32:00,
2013-02-19 09:42:00,18.0,7.0,-100.00,West,280,21.0,32.0,60,0.00,,,-99.99,,2013-02-19 15:42:00,
2013-02-19 09:52:00,18.0,6.0,-100.00,WNW,300,26.0,30.0,60,0.00,,,-99.99,,2013-02-19 15:52:00,
2013-02-19 10:02:00,18.0,6.0,-100.00,WNW,300,26.0,30.0,60,0.00,,,-99.99,,2013-02-19 16:02:00,
2013-02-19 10:11:00,19.0,7.0,-100.00,WNW,300,19.0,29.0,60,0.00,,,-99.99,,2013-02-19 16:11:00,
2013-02-19 10:21:00,19.0,7.0,-100.00,WNW,300,25.0,34.0,59,0.00,,,-99.99,,2013-02-19 16:21:00,
2013-02-19 10:32:00,20.0,7.0,-100.00,WNW,300,22.0,32.0,57,0.00,,,-99.99,,2013-02-19 16:32:00,
2013-02-19 10:41:00,20.0,7.0,-100.00,WNW,300,22.0,32.0,57,0.00,,,-99.99,,2013-02-19 16:41:00,
2013-02-19 10:51:00,20.0,7.0,-100.00,WNW,300,22.0,34.0,56,0.00,,,-99.99,,2013-02-19 16:51:00,
2013-02-19 11:01:00,20.0,7.0,-100.00,WNW,300,22.0,34.0,56,0.00,,,-99.99,,2013-02-19 17:01:00,
2013-02-19 11:11:00,19.0,6.0,-100.00,WNW,290,26.0,32.0,56,0.00,,,-99.99,,2013-02-19 17:11:00,
2013-02-19 11:21:00,20.0,6.0,-100.00,NW,305,20.0,30.0,55,0.00,,,-99.99,,2013-02-19 17:21:00,
2013-02-19 11:32:00,21.0,7.0,-100.00,WNW,295,21.0,34.0,53,0.00,,,-99.99,,2013-02-19 17:32:00,
2013-02-19 11:41:00,21.0,7.0,-100.00,WNW,295,21.0,34.0,53,0.00,,,-99.99,,2013-02-19 17:41:00,
2013-02-19 11:52:00,21.0,7.0,-100.00,NW,310,24.0,34.0,52,0.00,,,-99.99,,2013-02-19 17:52:00,
2013-02-19 12:01:00,21.0,7.0,-100.00,NW,310,24.0,34.0,52,0.00,,,-99.99,,2013-02-19 18:01:00,
2013-02-19 12:11:00,22.0,7.0,-100.00,NW,305,21.0,29.0,52,0.00,,,-99.99,,2013-02-19 18:11:00,
2013-02-19 12:21:00,21.0,7.0,-100.00,NW,305,26.0,36.0,52,0.00,,,-99.99,,2013-02-19 18:21:00,
2013-02-19 12:31:00,23.0,8.0,-100.00,WNW,295,19.0,30.0,52,0.00,,,-99.99,,2013-02-19 18:31:00,
2013-02-19 12:41:00,23.0,7.0,-100.00,West,280,19.0,30.0,50,0.00,,,-99.99,,2013-02-19 18:41:00,
2013-02-19 12:51:00,23.0,7.0,-100.00,West,275,19.0,29.0,50,0.00,,,-99.99,,2013-02-19 18:51:00,
2013-02-19 13:01:00,23.0,7.0,-100.00,NW,310,24.0,30.0,49,0.00,,,-99.99,,2013-02-19 19:01:00,
2013-02-19 13:11:00,23.0,7.0,-100.00,WNW,285,24.0,33.0,49,0.00,,,-99.99,,2013-02-19 19:11:00,
2013-02-19 13:21:00,23.0,7.0,-100.00,West,280,22.0,33.0,48,0.00,,,-99.99,,2013-02-19 19:21:00,
2013-02-19 13:31:00,24.0,7.0,-100.00,WNW,300,22.0,32.0,47,0.00,,,-99.99,,2013-02-19 19:31:00,
2013-02-19 13:41:00,24.0,7.0,-100.00,WNW,300,22.0,32.0,47,0.00,,,-99.99,,2013-02-19 19:41:00,
2013-02-19 13:51:00,25.0,8.0,-100.00,WNW,300,17.0,34.0,47,0.00,,,-99.99,,2013-02-19 19:51:00,
2013-02-19 14:01:00,25.0,8.0,-100.00,WNW,300,17.0,34.0,47,0.00,,,-99.99,,2013-02-19 20:01:00,
2013-02-19 14:12:00,25.0,8.0,-100.00,WNW,295,17.0,29.0,46,0.00,,,-99.99,,2013-02-19 20:12:00,
2013-02-19 14:21:00,25.0,7.0,-100.00,West,275,20.0,32.0,45,0.00,,,-99.99,,2013-02-19 20:21:00,
2013-02-19 14:32:00,26.0,8.0,-100.00,NW,305,24.0,34.0,45,0.00,,,-99.99,,2013-02-19 20:32:00,
2013-02-19 14:41:00,26.0,8.0,-100.00,NW,305,24.0,34.0,45,0.00,,,-99.99,,2013-02-19 20:41:00,
2013-02-19 14:52:00,26.0,7.0,-100.00,NW,310,22.0,32.0,44,0.00,,,-99.99,,2013-02-19 20:52:00,
2013-02-19 15:02:00,26.0,7.0,-100.00,NW,310,22.0,32.0,44,0.00,,,-99.99,,2013-02-19 21:02:00,
2013-02-19 15:11:00,26.0,8.0,-100.00,WNW,295,22.0,31.0,44,0.00,,,-99.99,,2013-02-19 21:11:00,
2013-02-19 15:21:00,26.0,7.0,-100.00,West,280,24.0,30.0,43,0.00,,,-99.99,,2013-02-19 21:21:00,
2013-02-19 15:32:00,27.0,7.0,-100.00,WNW,285,20.0,29.0,42,0.00,,,-99.99,,2013-02-19 21:32:00,
2013-02-19 15:42:00,27.0,7.0,-100.00,WNW,285,20.0,29.0,42,0.00,,,-99.99,,2013-02-19 21:42:00,
2013-02-19 15:51:00,27.0,6.0,-100.00,NW,305,21.0,30.0,41,0.00,,,-99.99,,2013-02-19 21:51:00,
2013-02-19 16:02:00,27.0,6.0,-100.00,NW,305,21.0,30.0,41,0.00,,,-99.99,,2013-02-19 22:02:00,
2013-02-19 16:11:00,27.0,7.0,-100.00,WNW,300,17.0,25.0,41,0.00,,,-99.99,,2013-02-19 22:11:00,
2013-02-19 16:21:00,27.0,7.0,-100.00,WNW,285,16.0,29.0,41,0.00,,,-99.99,,2013-02-19 22:21:00,
2013-02-19 16:32:00,26.0,6.0,-100.00,WNW,295,22.0,29.0,41,0.00,,,-99.99,,2013-02-19 22:32:00,
2013-02-19 16:41:00,26.0,6.0,-100.00,WNW,295,22.0,29.0,41,0.00,,,-99.99,,2013-02-19 22:41:00,
2013-02-19 16:51:00,25.0,6.0,-100.00,WNW,295,19.0,26.0,42,0.00,,,-99.99,,2013-02-19 22:51:00,
2013-02-19 17:01:00,25.0,6.0,-100.00,WNW,295,19.0,26.0,42,0.00,,,-99.99,,2013-02-19 23:01:00,
2013-02-19 17:11:00,24.0,5.0,-100.00,NW,315,23.0,28.0,42,0.00,,,-99.99,,2013-02-19 23:11:00,
2013-02-19 17:21:00,24.0,5.0,-100.00,WNW,295,18.0,29.0,42,0.00,,,-99.99,,2013-02-19 23:21:00,
2013-02-19 17:32:00,24.0,5.0,-100.00,WNW,295,19.0,29.0,42,0.00,,,-99.99,,2013-02-19 23:32:00,
2013-02-19 17:41:00,24.0,4.0,-100.00,WNW,295,14.0,26.0,43,0.00,,,-99.99,,2013-02-19 23:41:00,
2013-02-19 17:52:00,23.0,4.0,-100.00,WNW,290,19.0,25.0,44,0.00,,,-99.99,,2013-02-19 23:52:00,
2013-02-19 18:01:00,23.0,4.0,-100.00,WNW,290,19.0,25.0,44,0.00,,,-99.99,,2013-02-20 00:01:00,
2013-02-19 18:11:00,22.0,4.0,-100.00,WNW,300,16.0,22.0,45,0.00,,,-99.99,,2013-02-20 00:11:00,
2013-02-19 18:21:00,22.0,4.0,-100.00,WNW,295,13.0,21.0,45,0.00,,,-99.99,,2013-02-20 00:21:00,
2013-02-19 18:32:00,22.0,5.0,-100.00,WNW,300,11.0,21.0,46,0.00,,,-99.99,,2013-02-20 00:32:00,
2013-02-19 18:41:00,22.0,5.0,-100.00,NW,305,12.0,17.0,47,0.00,,,-99.99,,2013-02-20 00:41:00,
2013-02-19 18:51:00,22.0,5.0,-100.00,WNW,300,12.0,17.0,48,0.00,,,-99.99,,2013-02-20 00:51:00,
2013-02-19 19:02:00,22.0,5.0,-100.00,WNW,300,12.0,17.0,48,0.00,,,-99.99,,2013-02-20 01:02:00,
2013-02-19 19:11:00,21.0,5.0,-100.00,NW,310,10.0,16.0,48,0.00,,,-99.99,,2013-02-20 01:11:00,
2013-02-19 19:21:00,21.0,5.0,-100.00,NW,310,9.0,14.0,49,0.00,,,-99.99,,2013-02-20 01:21:00,
2013-02-19 19:32:00,21.0,5.0,-100.00,NW,305,10.0,16.0,50,0.00,,,-99.99,,2013-02-20 01:32:00,
2013-02-19 19:42:00,20.0,5.0,-100.00,NW,310,12.0,17.0,51,0.00,,,-99.99,,2013-02-20 01:42:00,
2013-02-19 19:51:00,20.0,5.0,-100.00,WNW,300,10.0,13.0,51,0.00,,,-99.99,,2013-02-20 01:51:00,
2013-02-19 20:01:00,20.0,5.0,-100.00,WNW,300,10.0,13.0,51,0.00,,,-99.99,,2013-02-20 02:01:00,
2013-02-19 20:11:00,20.0,5.0,-100.00,WNW,295,12.0,16.0,51,0.00,,,-99.99,,2013-02-20 02:11:00,
2013-02-19 20:21:00,20.0,5.0,-100.00,WNW,295,12.0,16.0,51,0.00,,,-99.99,,2013-02-20 02:21:00,
2013-02-19 20:32:00,20.0,5.0,-100.00,NW,305,9.0,16.0,51,0.00,,,-99.99,,2013-02-20 02:32:00,
2013-02-19 20:42:00,19.0,5.0,-100.00,WNW,300,9.0,14.0,51,0.00,,,-99.99,,2013-02-20 02:42:00,
2013-02-19 20:52:00,19.0,5.0,-100.00,WNW,295,9.0,14.0,52,0.00,,,-99.99,,2013-02-20 02:52:00,
2013-02-19 21:01:00,19.0,5.0,-100.00,WNW,295,9.0,14.0,52,0.00,,,-99.99,,2013-02-20 03:01:00,
2013-02-19 21:12:00,19.0,5.0,-100.00,NW,310,9.0,18.0,53,0.00,,,-99.99,,2013-02-20 03:12:00,
2013-02-19 21:22:00,19.0,5.0,-100.00,NNW,335,6.0,18.0,54,0.00,,,-99.99,,2013-02-20 03:22:00,
2013-02-19 21:32:00,18.0,5.0,-100.00,NW,310,11.0,13.0,55,0.00,,,-99.99,,2013-02-20 03:32:00,
2013-02-19 21:41:00,18.0,5.0,-100.00,NW,310,12.0,15.0,56,0.00,,,-99.99,,2013-02-20 03:41:00,
2013-02-19 21:51:00,18.0,5.0,-100.00,NW,305,15.0,21.0,55,0.00,,,-99.99,,2013-02-20 03:51:00,
2013-02-19 22:01:00,18.0,5.0,-100.00,NW,305,15.0,21.0,55,0.00,,,-99.99,,2013-02-20 04:01:00,
2013-02-19 22:11:00,18.0,4.0,-100.00,WNW,300,13.0,20.0,55,0.00,,,-99.99,,2013-02-20 04:11:00,
2013-02-19 22:21:00,17.0,4.0,-100.00,NW,305,13.0,17.0,55,0.00,,,-99.99,,2013-02-20 04:21:00,
2013-02-19 22:31:00,17.0,4.0,-100.00,NW,320,11.0,19.0,56,0.00,,,-99.99,,2013-02-20 04:31:00,
2013-02-19 22:41:00,17.0,4.0,-100.00,NW,305,11.0,19.0,57,0.00,,,-99.99,,2013-02-20 04:41:00,
2013-02-19 22:52:00,16.0,4.0,-100.00,NW,305,11.0,15.0,58,0.00,,,-99.99,,2013-02-20 04:52:00,
2013-02-19 23:02:00,16.0,4.0,-100.00,NW,305,11.0,15.0,58,0.00,,,-99.99,,2013-02-20 05:02:00,
2013-02-19 23:12:00,16.0,4.0,-100.00,NNW,335,11.0,16.0,59,0.00,,,-99.99,,2013-02-20 05:12:00,
2013-02-19 23:22:00,15.0,4.0,-100.00,NW,325,11.0,18.0,59,0.00,,,-99.99,,2013-02-20 05:22:00,
2013-02-19 23:32:00,15.0,4.0,-100.00,NW,310,13.0,20.0,60,0.00,,,-99.99,,2013-02-20 05:32:00,
2013-02-19 23:43:00,15.0,3.0,-100.00,NW,310,10.0,20.0,60,0.00,,,-99.99,,2013-02-20 05:43:00,
2013-02-19 23:52:00,14.0,3.0,-100.00,NW,310,10.0,13.0,61,0.00,,,-99.99,,2013-02-20 05:52:00,